Time;durP1;ratioP1;P1;durP2;ratioP2;P2;SDS_P1;SDS_P2;PMS_P1;PMS_P2;Temp;Humidity;BMP_temperature;BMP_pressure;BME280_temperature;BME280_humidity;BME280_pressure;Samples;Min_cycle;Max_cycle;Signal;HPM_P1;HPM_P2
2021/01/27 00:01:44;;;;;;;53.87;25.57;;;51.80;2150.40;;;;;;5135359;27;20042;-76
2021/01/27 00:04:10;;;;;;;40.40;23.70;;;51.80;2150.40;;;;;;5135020;27;20102;-75
2021/01/27 00:06:36;;;;;;;46.50;25.80;;;51.90;2124.80;;;;;;5135261;27;20031;-76
2021/01/27 00:09:03;;;;;;;45.93;26.47;;;51.90;2124.80;;;;;;5134950;27;20105;-76
2021/01/27 00:11:29;;;;;;;44.67;23.63;;;51.90;2124.80;;;;;;5133613;27;20027;-75
2021/01/27 00:13:55;;;;;;;41.67;23.67;;;51.90;2124.80;;;;;;5133527;27;20057;-76
2021/01/27 00:16:21;;;;;;;40.67;23.47;;;51.90;2124.80;;;;;;5134867;27;20019;-76
2021/01/27 00:18:46;;;;;;;38.87;22.57;;;51.90;2124.80;;;;;;5135098;27;20448;-76
2021/01/27 00:21:12;;;;;;;39.73;23.27;;;51.90;2124.80;;;;;;5134840;27;20039;-75
2021/01/27 00:23:38;;;;;;;39.80;22.77;;;51.90;2124.80;;;;;;5133461;27;20539;-76
2021/01/27 00:26:04;;;;;;;42.37;24.13;;;51.90;2150.40;;;;;;5134693;27;20027;-76
2021/01/27 00:28:30;;;;;;;51.83;29.17;;;51.90;2150.40;;;;;;5133368;27;20031;-76
2021/01/27 00:30:55;;;;;;;77.47;30.93;;;51.80;2150.40;;;;;;5133369;27;20114;-76
2021/01/27 00:33:21;;;;;;;58.77;29.17;;;51.90;2150.40;;;;;;5134591;27;20035;-76
2021/01/27 00:35:49;;;;;;;61.83;33.73;;;51.90;2176.00;;;;;;5134771;27;20023;-75
2021/01/27 00:38:18;;;;;;;67.83;35.73;;;51.80;2176.00;;;;;;5133211;27;20036;-75
2021/01/27 00:40:44;;;;;;;103.87;52.37;;;51.80;2176.00;;;;;;5134715;27;20016;-75
2021/01/27 00:43:11;;;;;;;106.73;53.83;;;51.80;2176.00;;;;;;5134522;27;20039;-75
2021/01/27 00:45:37;;;;;;;80.23;42.83;;;51.80;2176.00;;;;;;5134446;28;20410;-76
2021/01/27 00:48:04;;;;;;;74.40;38.43;;;51.80;2201.60;;;;;;5134722;28;20027;-75
2021/01/27 00:50:30;;;;;;;46.63;27.33;;;51.80;2201.60;;;;;;5133089;28;20019;-75
2021/01/27 00:52:55;;;;;;;41.13;23.20;;;51.80;2201.60;;;;;;5134346;28;20027;-76
2021/01/27 00:55:25;;;;;;;32.30;19.43;;;51.80;2201.60;;;;;;5134264;27;20062;-76
2021/01/27 00:57:51;;;;;;;34.27;21.77;;;51.90;2176.00;;;;;;5133344;28;20027;-75
2021/01/27 01:00:21;;;;;;;34.57;22.23;;;51.90;2176.00;;;;;;5134575;28;20043;-80
2021/01/27 01:02:47;;;;;;;39.77;23.13;;;51.90;2176.00;;;;;;5134635;28;20012;-89
2021/01/27 01:05:16;;;;;;;35.73;23.40;;;52.00;2176.00;;;;;;5134356;28;20023;-75
2021/01/27 01:07:47;;;;;;;36.37;22.33;;;52.00;2176.00;;;;;;5132892;28;20522;-75
2021/01/27 01:10:37;;;;;;;34.53;22.63;;;52.00;2176.00;;;;;;5134427;28;20379;-75
2021/01/27 01:13:06;;;;;;;35.33;21.90;;;52.00;2176.00;;;;;;5133780;27;20023;-75
2021/01/27 01:15:32;;;;;;;34.40;23.70;;;52.00;2176.00;;;;;;5133827;27;20080;-75
2021/01/27 01:17:58;;;;;;;34.73;22.90;;;51.90;2176.00;;;;;;5113485;28;20027;-75
2021/01/27 01:20:24;;;;;;;38.80;23.77;;;52.00;2176.00;;;;;;5113530;28;20407;-74
2021/01/27 01:22:53;;;;;;;34.23;24.10;;;52.00;2176.00;;;;;;5113481;28;20099;-75
2021/01/27 01:25:21;;;;;;;37.90;23.97;;;52.00;2176.00;;;;;;5113521;28;20095;-74
2021/01/27 01:27:48;;;;;;;41.83;27.60;;;52.00;2176.00;;;;;;5113443;28;20034;-74
2021/01/27 01:30:15;;;;;;;42.90;28.33;;;52.00;2201.60;;;;;;5113444;28;20023;-74
2021/01/27 01:32:42;;;;;;;44.13;28.67;;;52.00;2176.00;;;;;;5113237;28;20031;-74
2021/01/27 01:35:10;;;;;;;45.37;29.03;;;52.10;2176.00;;;;;;5113223;28;20080;-74
2021/01/27 01:37:35;;;;;;;35.23;23.73;;;52.10;2176.00;;;;;;5113396;28;20022;-74
2021/01/27 01:40:07;;;;;;;37.67;24.13;;;52.10;2176.00;;;;;;5113314;28;20036;-74
2021/01/27 01:42:33;;;;;;;36.23;21.47;;;52.10;2176.00;;;;;;5111930;28;20536;-74
2021/01/27 01:44:59;;;;;;;30.83;19.53;;;52.10;2201.60;;;;;;5120349;28;20016;-74
2021/01/27 01:47:26;;;;;;;31.40;20.67;;;52.10;2176.00;;;;;;5133446;27;20490;-74
2021/01/27 01:49:54;;;;;;;29.80;20.47;;;52.10;2176.00;;;;;;5131982;28;20382;-74
2021/01/27 01:52:21;;;;;;;29.33;19.27;;;76.80;2176.00;;;;;;5135567;27;20023;-75
2021/01/27 01:54:52;;;;;;;30.37;19.27;;;76.80;2176.00;;;;;;5136902;27;20033;-75
2021/01/27 01:57:22;;;;;;;26.80;18.33;;;76.80;2176.00;;;;;;5134741;27;20479;-76
2021/01/27 01:59:54;;;;;;;28.17;18.97;;;76.80;2176.00;;;;;;5136650;27;20046;-75
2021/01/27 02:02:22;;;;;;;28.90;18.37;;;76.80;2176.00;;;;;;5136781;27;20023;-75
2021/01/27 02:05:06;;;;;;;28.70;18.53;;;76.80;2176.00;;;;;;5135545;27;20019;-74
2021/01/27 02:07:32;;;;;;;25.70;17.13;;;76.80;2176.00;;;;;;5137377;27;20030;-74
2021/01/27 02:09:58;;;;;;;27.07;18.17;;;76.80;2176.00;;;;;;5135821;27;20023;-74
2021/01/27 02:12:43;;;;;;;31.40;18.20;;;76.80;2176.00;;;;;;5137004;27;20057;-74
2021/01/27 02:15:27;;;;;;;28.27;18.57;;;76.80;2176.00;;;;;;5137002;27;20106;-74
2021/01/27 02:18:11;;;;;;;31.43;20.17;;;76.80;2176.00;;;;;;5136851;27;20027;-74
2021/01/27 02:21:14;;;;;;;28.52;20.48;;;76.80;2176.00;;;;;;5136891;27;20091;-74
2021/01/27 02:23:58;;;;;;;31.23;20.70;;;76.80;2150.40;;;;;;5136759;27;20476;-74
2021/01/27 02:26:45;;;;;;;;;;;76.80;2176.00;;;;;;5135886;27;20110;-74
2021/01/27 02:29:38;;;;;;;28.10;18.17;;;76.80;2176.00;;;;;;5136859;27;19994;-74
2021/01/27 02:32:39;;;;;;;28.53;18.00;;;76.80;2176.00;;;;;;5136694;27;20506;-74
2021/01/27 02:35:18;;;;;;;29.77;18.93;;;76.80;2176.00;;;;;;5136498;27;20391;-75
2021/01/27 02:38:00;;;;;;;30.80;19.10;;;76.80;2176.00;;;;;;5135188;27;20022;-75
2021/01/27 02:40:32;;;;;;;31.17;18.87;;;76.80;2176.00;;;;;;5136569;27;20019;-74
2021/01/27 02:43:21;;;;;;;30.50;18.17;;;76.80;2176.00;;;;;;5136106;27;20031;-74
2021/01/27 02:45:56;;;;;;;24.53;16.83;;;76.80;2176.00;;;;;;5136533;27;20033;-74
2021/01/27 02:48:32;;;;;;;28.77;18.13;;;76.80;2201.60;;;;;;5136813;27;20023;-73
2021/01/27 02:51:13;;;;;;;25.43;16.27;;;52.10;2201.60;;;;;;5136495;27;20015;-74
2021/01/27 02:53:46;;;;;;;26.07;16.77;;;52.10;2201.60;;;;;;5136363;27;20070;-74
2021/01/27 02:56:27;;;;;;;25.33;17.63;;;52.10;2201.60;;;;;;5136722;27;20106;-74
2021/01/27 02:59:04;;;;;;;27.60;16.77;;;76.80;2201.60;;;;;;5136304;27;20080;-74
2021/01/27 03:02:09;;;;;;;27.33;16.77;;;52.10;2227.20;;;;;;5136280;27;20023;-74
2021/01/27 03:04:38;;;;;;;;;;;52.10;2201.60;;;;;;5116715;27;20447;-74
2021/01/27 03:07:07;;;;;;;25.87;16.13;;;52.10;2227.20;;;;;;5136426;27;20400;-74
2021/01/27 03:09:49;;;;;;;26.23;15.60;;;52.10;2227.20;;;;;;5135961;27;20046;-74
2021/01/27 03:12:15;;;;;;;23.67;16.47;;;52.10;2227.20;;;;;;5134768;27;20105;-74
2021/01/27 03:14:41;;;;;;;26.50;17.33;;;52.10;2227.20;;;;;;5135850;27;20450;-74
2021/01/27 03:17:17;;;;;;;25.90;17.37;;;52.10;2227.20;;;;;;5135931;27;20058;-74
2021/01/27 03:19:49;;;;;;;25.07;15.97;;;76.80;2227.20;;;;;;5134559;27;20118;-73
2021/01/27 03:22:20;;;;;;;25.33;15.60;;;76.80;2227.20;;;;;;5134573;27;20110;-74
2021/01/27 03:24:56;;;;;;;23.73;16.30;;;52.10;2227.20;;;;;;5135796;27;20023;-74
2021/01/27 03:27:27;;;;;;;24.40;16.30;;;52.10;2227.20;;;;;;5136042;27;20027;-73
2021/01/27 03:29:59;;;;;;;20.80;14.73;;;52.10;2227.20;;;;;;5134416;27;20023;-74
2021/01/27 03:32:35;;;;;;;24.93;14.70;;;76.80;2227.20;;;;;;5134355;27;20023;-74
2021/01/27 03:35:09;;;;;;;22.47;15.17;;;52.10;2227.20;;;;;;5134207;27;20110;-74
2021/01/27 03:37:43;;;;;;;20.83;13.70;;;52.10;2227.20;;;;;;5136088;27;20368;-74
2021/01/27 03:40:12;;;;;;;20.30;13.47;;;52.10;2227.20;;;;;;5135488;27;20027;-74
2021/01/27 03:42:58;;;;;;;17.23;12.50;;;52.10;2227.20;;;;;;5134161;27;20038;-74
2021/01/27 03:45:28;;;;;;;22.17;12.80;;;52.10;2227.20;;;;;;5135417;27;20415;-74
2021/01/27 03:48:22;;;;;;;17.53;12.50;;;52.10;2227.20;;;;;;5135285;27;20025;-74
2021/01/27 03:50:54;;;;;;;17.05;12.57;;;52.10;2227.20;;;;;;5092494;28;20065;-74
2021/01/27 03:53:20;;;;;;;17.37;12.60;;;52.10;2227.20;;;;;;5075265;28;20039;-74
2021/01/27 03:56:03;;;;;;;19.77;12.17;;;52.10;2227.20;;;;;;5075153;28;20099;-74
2021/01/27 03:58:39;;;;;;;16.97;12.13;;;52.10;2227.20;;;;;;5075084;28;20110;-74
2021/01/27 04:01:10;;;;;;;19.20;12.43;;;52.10;2227.20;;;;;;5092064;28;20059;-74
2021/01/27 04:03:37;;;;;;;17.27;12.37;;;52.10;2227.20;;;;;;5092038;28;20036;-73
2021/01/27 04:06:04;;;;;;;17.93;12.40;;;52.10;2227.20;;;;;;5092123;28;20089;-74
2021/01/27 04:08:30;;;;;;;17.57;11.50;;;76.80;2227.20;;;;;;5074854;28;20020;-74
2021/01/27 04:10:56;;;;;;;18.13;13.00;;;76.80;2227.20;;;;;;5092289;28;20040;-74
2021/01/27 04:13:22;;;;;;;14.87;11.27;;;76.80;2227.20;;;;;;5091871;28;20078;-74
2021/01/27 04:15:48;;;;;;;16.37;11.83;;;76.80;2227.20;;;;;;5091913;28;20037;-74
2021/01/27 04:18:15;;;;;;;17.57;12.73;;;76.80;2227.20;;;;;;5091906;28;20122;-74
2021/01/27 04:20:41;;;;;;;19.57;12.30;;;76.80;2227.20;;;;;;5093972;28;20032;-74
2021/01/27 04:23:07;;;;;;;22.80;13.53;;;76.80;2227.20;;;;;;5134975;27;20486;-74
2021/01/27 04:25:33;;;;;;;17.63;12.63;;;76.80;2227.20;;;;;;5133360;27;20039;-74
2021/01/27 04:27:59;;;;;;;16.23;11.30;;;76.80;2227.20;;;;;;5134720;27;20030;-74
2021/01/27 04:30:29;;;;;;;17.33;11.33;;;76.80;2227.20;;;;;;5134920;27;20023;-74
2021/01/27 04:32:56;;;;;;;14.87;11.00;;;76.80;2227.20;;;;;;5134837;27;20489;-74
2021/01/27 04:35:23;;;;;;;16.57;12.20;;;76.80;2227.20;;;;;;5133135;27;20053;-74
2021/01/27 04:37:49;;;;;;;15.37;11.20;;;76.80;2227.20;;;;;;5134537;27;20195;-74
2021/01/27 04:40:32;;;;;;;16.43;12.10;;;76.80;2227.20;;;;;;5133214;27;20059;-74
2021/01/27 04:42:59;;;;;;;20.50;12.53;;;76.80;2227.20;;;;;;5134453;27;20054;-74
2021/01/27 04:45:25;;;;;;;15.17;11.13;;;76.80;2227.20;;;;;;5133199;27;20107;-74
2021/01/27 04:48:11;;;;;;;19.47;12.57;;;76.80;2227.20;;;;;;5133081;28;20031;-74
2021/01/27 04:50:51;;;;;;;27.63;17.17;;;76.80;2227.20;;;;;;5134399;27;20019;-75
2021/01/27 04:54:01;;;;;;;20.07;13.80;;;76.80;2227.20;;;;;;5134286;27;20102;-74
2021/01/27 04:57:04;;;;;;;19.00;13.07;;;76.80;2227.20;;;;;;5133153;28;20475;-74
2021/01/27 04:59:53;;;;;;;18.07;12.27;;;76.80;2227.20;;;;;;5134054;28;20054;-74
2021/01/27 05:02:22;;;;;;;18.57;12.07;;;76.80;2227.20;;;;;;5132561;28;20027;-74
2021/01/27 05:05:07;;;;;;;15.40;11.23;;;76.80;2227.20;;;;;;5134292;27;20026;-74
2021/01/27 05:07:36;;;;;;;;;;;76.80;2227.20;;;;;;5134942;28;20106;-75
2021/01/27 05:10:05;;;;;;;29.93;17.47;;;76.80;2227.20;;;;;;5134245;27;20379;-74
2021/01/27 05:12:46;;;;;;;20.80;14.43;;;52.10;2227.20;;;;;;5134218;27;20468;-74
2021/01/27 05:15:13;;;;;;;17.43;12.67;;;52.10;2227.20;;;;;;5134138;27;20523;-74
2021/01/27 05:17:45;;;;;;;19.83;14.00;;;52.10;2227.20;;;;;;5133929;27;20042;-74
2021/01/27 05:20:13;;;;;;;23.07;15.37;;;52.10;2227.20;;;;;;5133956;27;20019;-75
2021/01/27 05:22:40;;;;;;;27.70;17.43;;;52.10;2227.20;;;;;;5134012;27;20019;-75
2021/01/27 05:25:43;;;;;;;23.43;15.63;;;52.10;2227.20;;;;;;5133917;27;20476;-75
2021/01/27 05:28:34;;;;;;;22.43;15.77;;;52.00;2227.20;;;;;;5112584;27;20035;-75
2021/01/27 05:31:00;;;;;;;26.63;17.37;;;52.00;2227.20;;;;;;5136599;27;20019;-75
2021/01/27 05:33:41;;;;;;;23.10;16.73;;;52.00;2227.20;;;;;;5137737;27;20019;-75
2021/01/27 05:36:11;;;;;;;21.13;15.20;;;52.00;2227.20;;;;;;5137815;27;20034;-75
2021/01/27 05:38:37;;;;;;;18.27;13.83;;;52.00;2227.20;;;;;;5137775;27;20475;-74
2021/01/27 05:41:24;;;;;;;19.90;14.67;;;52.00;2227.20;;;;;;5136370;27;20023;-74
2021/01/27 05:44:05;;;;;;;22.90;15.43;;;52.10;2227.20;;;;;;5137664;27;20027;-75
2021/01/27 05:46:35;;;;;;;27.17;17.77;;;52.10;2227.20;;;;;;5136409;27;20076;-74
2021/01/27 05:49:03;;;;;;;28.20;19.30;;;52.10;2227.20;;;;;;5137671;27;20136;-73
2021/01/27 05:51:34;;;;;;;24.90;17.43;;;52.00;2227.20;;;;;;5137586;27;20029;-74
2021/01/27 05:54:04;;;;;;;24.63;16.80;;;52.00;2227.20;;;;;;5134640;27;20070;-74
2021/01/27 05:56:30;;;;;;;38.47;22.83;;;52.00;2227.20;;;;;;5137816;27;20026;-75
2021/01/27 05:59:01;;;;;;;25.47;17.87;;;52.00;2227.20;;;;;;5136002;27;20031;-75
2021/01/27 06:01:33;;;;;;;26.50;17.47;;;52.00;2227.20;;;;;;5137443;27;20042;-74
2021/01/27 06:04:04;;;;;;;26.37;17.90;;;52.00;2227.20;;;;;;5137364;27;20026;-74
2021/01/27 06:06:34;;;;;;;22.30;16.37;;;52.00;2227.20;;;;;;5137295;27;20380;-75
2021/01/27 06:09:04;;;;;;;24.70;16.20;;;51.90;2227.20;;;;;;5137281;27;20065;-73
2021/01/27 06:11:29;;;;;;;22.50;15.57;;;51.90;2227.20;;;;;;5137403;27;20043;-74
2021/01/27 06:14:08;;;;;;;20.07;15.03;;;51.90;2227.20;;;;;;5135890;27;20530;-74
2021/01/27 06:16:43;;;;;;;25.93;18.30;;;51.90;2227.20;;;;;;5137371;27;20015;-74
2021/01/27 06:19:13;;;;;;;25.13;16.87;;;51.90;2227.20;;;;;;5137128;27;20046;-74
2021/01/27 06:22:23;;;;;;;31.13;19.47;;;51.80;2227.20;;;;;;5136993;27;20407;-74
2021/01/27 06:25:06;;;;;;;28.77;20.00;;;51.90;2227.20;;;;;;5073783;28;20033;-74
2021/01/27 06:27:50;;;;;;;22.00;16.95;;;51.80;2227.20;;;;;;5073814;28;20039;-74
2021/01/27 06:30:16;;;;;;;;;;;51.80;2227.20;;;;;;5074094;28;20149;-74
2021/01/27 06:33:00;;;;;;;36.37;21.13;;;51.80;2227.20;;;;;;5056839;28;19995;-75
2021/01/27 06:35:38;;;;;;;34.53;21.48;;;51.80;2227.20;;;;;;5073633;28;20045;-74
2021/01/27 06:38:21;;;;;;;31.53;19.87;;;51.80;2227.20;;;;;;5073747;28;20527;-74
2021/01/27 06:40:50;;;;;;;29.37;20.50;;;51.80;2227.20;;;;;;5073426;28;20040;-74
2021/01/27 06:43:37;;;;;;;28.27;18.63;;;51.80;2227.20;;;;;;5073362;28;20031;-74
2021/01/27 06:46:25;;;;;;;23.27;15.87;;;51.80;2227.20;;;;;;5073617;28;20036;-75
2021/01/27 06:49:11;;;;;;;23.97;17.27;;;51.70;2227.20;;;;;;5073324;28;20037;-73
2021/01/27 06:51:49;;;;;;;41.33;25.37;;;51.70;2227.20;;;;;;5073557;28;20029;-74
2021/01/27 06:54:46;;;;;;;41.47;25.47;;;51.80;2227.20;;;;;;5073119;28;20044;-74
2021/01/27 06:57:47;;;;;;;37.03;23.63;;;51.70;2227.20;;;;;;5073330;28;20032;-74
2021/01/27 07:00:38;;;;;;;33.03;20.57;;;51.70;2227.20;;;;;;5075854;27;20113;-74
2021/01/27 07:03:32;;;;;;;30.47;20.40;;;51.70;2227.20;;;;;;5136274;27;20023;-74
2021/01/27 07:06:16;;;;;;;29.10;19.83;;;51.70;2227.20;;;;;;5136527;27;20040;-74
2021/01/27 07:09:32;;;;;;;25.92;18.90;;;51.60;2227.20;;;;;;5136145;27;20019;-74
2021/01/27 07:12:23;;;;;;;26.67;18.97;;;51.70;2227.20;;;;;;5135709;27;20041;-74
2021/01/27 07:15:22;;;;;;;28.40;19.50;;;51.60;2227.20;;;;;;5134773;27;20429;-74
2021/01/27 07:17:59;;;;;;;25.83;18.37;;;51.60;2227.20;;;;;;5136274;27;20022;-74
2021/01/27 07:20:39;;;;;;;23.67;17.43;;;51.60;2227.20;;;;;;5134553;27;20458;-74
2021/01/27 07:23:35;;;;;;;25.70;18.73;;;51.60;2227.20;;;;;;5136132;27;20019;-74
2021/01/27 07:26:06;;;;;;;27.70;19.50;;;51.60;2227.20;;;;;;5135904;27;20027;-74
2021/01/27 07:28:49;;;;;;;26.77;18.67;;;51.60;2227.20;;;;;;5135759;27;20015;-75
2021/01/27 07:31:31;;;;;;;30.13;20.77;;;51.70;2227.20;;;;;;5135484;27;20030;-75
2021/01/27 07:34:09;;;;;;;34.07;24.63;;;51.70;2227.20;;;;;;5135521;27;20035;-74
2021/01/27 07:36:41;;;;;;;33.10;21.90;;;51.70;2227.20;;;;;;5135585;27;20039;-74
2021/01/27 07:39:23;;;;;;;28.13;21.57;;;51.70;2227.20;;;;;;5135635;27;20050;-74
2021/01/27 07:42:12;;;;;;;28.87;20.93;;;51.70;2227.20;;;;;;5135559;27;20071;-74
2021/01/27 07:44:43;;;;;;;29.73;20.83;;;51.70;2227.20;;;;;;5124624;27;20058;-74
2021/01/27 07:47:54;;;;;;;34.60;22.53;;;51.70;2227.20;;;;;;5134066;27;20023;-74
2021/01/27 07:50:23;;;;;;;31.27;22.03;;;51.70;2227.20;;;;;;5133512;27;20427;-74
2021/01/27 07:53:03;;;;;;;27.50;20.03;;;51.70;2227.20;;;;;;5135328;27;20064;-74
2021/01/27 07:55:53;;;;;;;31.97;23.37;;;51.70;2227.20;;;;;;5135269;27;20045;-74
2021/01/27 07:58:35;;;;;;;27.43;19.63;;;51.80;2227.20;;;;;;5135143;27;20019;-74
2021/01/27 08:01:23;;;;;;;28.63;20.97;;;51.80;2227.20;;;;;;5134953;27;20082;-74
2021/01/27 08:04:43;;;;;;;27.70;19.93;;;51.80;2227.20;;;;;;5135293;27;20019;-74
2021/01/27 08:07:32;;;;;;;27.60;19.27;;;51.80;2227.20;;;;;;5052038;28;20029;-74
2021/01/27 08:10:15;;;;;;;37.97;24.77;;;51.80;2227.20;;;;;;5052298;28;20573;-73
2021/01/27 08:12:50;;;;;;;35.37;23.33;;;51.90;2227.20;;;;;;5051725;28;20033;-75
2021/01/27 08:15:25;;;;;;;43.63;29.03;;;51.90;2227.20;;;;;;5051989;28;20151;-74
2021/01/27 08:17:59;;;;;;;39.97;26.03;;;51.90;2227.20;;;;;;5051649;28;20048;-75
2021/01/27 08:20:45;;;;;;;48.20;31.03;;;52.00;2227.20;;;;;;5051626;28;20033;-74
2021/01/27 08:23:32;;;;;;;60.17;35.40;;;52.00;2227.20;;;;;;5034865;28;20029;-74
2021/01/27 08:25:58;;;;;;;55.10;31.43;;;52.00;2227.20;;;;;;5051819;28;20425;-75
2021/01/27 08:28:36;;;;;;;33.40;21.67;;;52.00;2227.20;;;;;;5051615;28;20033;-74
2021/01/27 08:31:07;;;;;;;38.33;23.67;;;52.00;2227.20;;;;;;5051470;28;20025;-74
2021/01/27 08:33:45;;;;;;;39.23;24.37;;;52.10;2227.20;;;;;;5034564;28;20140;-74
2021/01/27 08:36:41;;;;;;;37.97;24.50;;;52.10;2227.20;;;;;;5034619;28;20039;-74
2021/01/27 08:39:12;;;;;;;30.40;20.57;;;76.80;2227.20;;;;;;5034430;28;20078;-74
2021/01/27 08:42:02;;;;;;;42.13;26.47;;;76.80;2227.20;;;;;;5110757;27;20361;-74
2021/01/27 08:44:40;;;;;;;37.20;25.47;;;76.80;2227.20;;;;;;5133282;27;20020;-75
2021/01/27 08:47:41;;;;;;;33.80;22.97;;;77.00;2227.20;;;;;;5134440;27;20455;-74
2021/01/27 08:50:31;;;;;;;32.60;21.20;;;77.30;2201.60;;;;;;5034650;28;20033;-74
2021/01/27 08:53:09;;;;;;;28.97;20.80;;;102.40;2099.20;;;;;;5051101;28;20044;-74
2021/01/27 08:55:38;;;;;;;30.70;21.27;;;102.40;2099.20;;;;;;5051198;28;20040;-75
2021/01/27 08:58:35;;;;;;;31.20;21.33;;;77.70;2099.20;;;;;;5051117;28;20425;-74
2021/01/27 09:01:05;;;;;;;33.97;22.17;;;102.50;2099.20;;;;;;5045728;28;20045;-74
2021/01/27 09:03:37;;;;;;;31.07;21.97;;;102.40;2099.20;;;;;;5038543;28;20052;-76
2021/01/27 09:06:07;;;;;;;33.43;20.57;;;102.40;2124.80;;;;;;5038485;28;20038;-74
2021/01/27 09:08:34;;;;;;;29.47;20.20;;;102.40;2099.20;;;;;;5055145;28;20160;-75
2021/01/27 09:11:07;;;;;;;29.80;21.57;;;102.60;2099.20;;;;;;5055103;28;20115;-74
2021/01/27 09:13:40;;;;;;;32.85;22.80;;;102.70;2073.60;;;;;;5055233;28;20512;-75
2021/01/27 09:16:08;;;;;;;26.80;19.43;;;102.60;2099.20;;;;;;5038298;28;20494;-75
2021/01/27 09:18:37;;;;;;;36.53;24.87;;;102.50;2099.20;;;;;;5054997;28;20123;-74
2021/01/27 09:21:20;;;;;;;82.47;43.77;;;102.50;2099.20;;;;;;5038120;28;20029;-74
2021/01/27 09:23:54;;;;;;;80.23;40.77;;;102.50;2099.20;;;;;;5038137;28;20470;-74
2021/01/27 09:26:35;;;;;;;109.57;50.70;;;102.50;2073.60;;;;;;5119386;27;20480;-74
2021/01/27 09:29:13;;;;;;;42.13;23.67;;;102.60;2073.60;;;;;;5138479;27;20080;-74
2021/01/27 09:31:40;;;;;;;44.43;25.83;;;102.50;2073.60;;;;;;5138022;27;20045;-75
2021/01/27 09:34:24;;;;;;;34.23;22.53;;;102.60;2073.60;;;;;;5137945;27;20027;-74
2021/01/27 09:36:58;;;;;;;28.67;18.90;;;102.60;2073.60;;;;;;5137891;27;20026;-76
2021/01/27 09:39:29;;;;;;;;;;;102.70;2022.40;;;;;;5138229;27;20030;-75
2021/01/27 09:41:58;;;;;;;37.97;22.73;;;102.70;2048.00;;;;;;5137278;27;20346;-74
2021/01/27 09:44:33;;;;;;;34.77;22.60;;;102.80;2022.40;;;;;;5136721;27;20026;-75
2021/01/27 09:47:09;;;;;;;36.80;24.40;;;102.80;2022.40;;;;;;5137449;27;20022;-75
2021/01/27 09:49:39;;;;;;;34.13;22.53;;;102.80;2048.00;;;;;;5137687;27;20030;-75
2021/01/27 09:52:10;;;;;;;28.63;20.23;;;102.70;2022.40;;;;;;5137494;27;20019;-74
2021/01/27 09:54:40;;;;;;;30.43;18.97;;;102.60;2048.00;;;;;;5137651;27;20077;-75
2021/01/27 09:57:08;;;;;;;24.10;18.03;;;102.60;2022.40;;;;;;5137472;27;20022;-74
2021/01/27 09:59:34;;;;;;;27.57;19.43;;;102.60;2022.40;;;;;;5136505;27;20039;-74
2021/01/27 10:02:00;;;;;;;42.77;27.80;;;102.80;2048.00;;;;;;5137159;27;20080;-74
2021/01/27 10:04:36;;;;;;;36.57;24.43;;;102.80;2048.00;;;;;;5135855;27;20019;-74
2021/01/27 10:07:07;;;;;;;29.27;19.50;;;102.80;2022.40;;;;;;5137021;27;20572;-75
2021/01/27 10:09:50;;;;;;;35.50;21.67;;;102.70;2022.40;;;;;;5136781;27;20023;-74
2021/01/27 10:12:28;;;;;;;28.43;18.80;;;102.70;2022.40;;;;;;5136635;27;20019;-75
2021/01/27 10:15:02;;;;;;;26.73;17.53;;;103.00;1996.80;;;;;;5137467;27;20031;-75
2021/01/27 10:17:29;;;;;;;;;;;103.00;1996.80;;;;;;5136356;27;20015;-75
2021/01/27 10:20:17;;;;;;;29.13;18.37;;;103.00;1971.20;;;;;;5137236;27;20379;-75
2021/01/27 10:22:54;;;;;;;79.37;38.13;;;102.90;1971.20;;;;;;5137093;27;20027;-77
2021/01/27 10:25:30;;;;;;;56.63;36.70;;;102.90;2022.40;;;;;;5137256;27;20442;-76
2021/01/27 10:28:11;;;;;;;35.13;22.23;;;103.00;1996.80;;;;;;5136952;27;20023;-76
2021/01/27 10:30:51;;;;;;;33.10;22.03;;;103.00;1996.80;;;;;;5136925;27;20015;-75
2021/01/27 10:33:51;;;;;;;34.47;22.90;;;103.00;2022.40;;;;;;5136838;27;20148;-75
2021/01/27 10:36:38;;;;;;;57.13;31.17;;;103.00;1996.80;;;;;;5073557;28;20525;-74
2021/01/27 10:39:16;;;;;;;45.03;25.07;;;103.00;1996.80;;;;;;5072842;28;20044;-74
2021/01/27 10:41:43;;;;;;;27.77;18.70;;;103.00;1996.80;;;;;;5072737;28;20111;-74
2021/01/27 10:44:20;;;;;;;27.67;18.60;;;103.00;1971.20;;;;;;5055953;28;20021;-74
2021/01/27 10:46:46;;;;;;;26.40;18.73;;;102.90;1971.20;;;;;;5072857;28;20397;-74
2021/01/27 10:49:12;;;;;;;38.83;22.33;;;102.90;1971.20;;;;;;5072945;28;20032;-74
2021/01/27 10:51:40;;;;;;;24.03;16.27;;;103.10;1971.20;;;;;;5056138;28;20028;-75
2021/01/27 10:54:06;;;;;;;27.43;17.87;;;103.00;1971.20;;;;;;5056171;28;20530;-75
2021/01/27 10:56:32;;;;;;;31.30;18.77;;;102.90;1971.20;;;;;;5073181;28;20060;-75
2021/01/27 10:58:58;;;;;;;26.83;17.93;;;102.90;1996.80;;;;;;5073030;28;20037;-75
2021/01/27 11:01:24;;;;;;;36.30;19.60;;;102.90;2022.40;;;;;;5073363;28;20083;-74
2021/01/27 11:03:50;;;;;;;19.93;13.83;;;102.80;1996.80;;;;;;5056195;28;20044;-74
2021/01/27 11:06:18;;;;;;;35.10;17.60;;;102.70;1996.80;;;;;;5056403;28;20033;-75
2021/01/27 11:08:45;;;;;;;20.47;14.73;;;102.70;2022.40;;;;;;5072950;28;20039;-74
2021/01/27 11:11:12;;;;;;;29.30;15.87;;;102.70;1996.80;;;;;;5087984;27;20068;-75
2021/01/27 11:13:39;;;;;;;26.27;14.43;;;102.70;1996.80;;;;;;5134668;27;20028;-74
2021/01/27 11:16:09;;;;;;;34.77;18.67;;;102.60;1996.80;;;;;;5134702;27;20034;-75
2021/01/27 11:18:36;;;;;;;67.30;33.50;;;102.70;2022.40;;;;;;5135971;27;20029;-74
2021/01/27 11:21:03;;;;;;;49.57;26.67;;;102.60;2048.00;;;;;;5136253;27;20440;-74
2021/01/27 11:23:29;;;;;;;60.87;30.50;;;102.60;2048.00;;;;;;5135247;27;20371;-74
2021/01/27 11:25:55;;;;;;;39.57;21.77;;;102.60;2048.00;;;;;;5135678;27;20103;-74
2021/01/27 11:28:22;;;;;;;56.00;31.50;;;102.60;1996.80;;;;;;5135410;27;20031;-74
2021/01/27 11:30:49;;;;;;;41.10;26.00;;;102.60;1996.80;;;;;;5135982;27;20027;-74
2021/01/27 11:33:18;;;;;;;44.43;22.47;;;102.60;1996.80;;;;;;5135633;27;20502;-75
2021/01/27 11:35:45;;;;;;;49.03;26.60;;;102.60;1971.20;;;;;;5134194;27;20063;-74
2021/01/27 11:38:11;;;;;;;33.80;18.43;;;102.70;2022.40;;;;;;5135553;27;20023;-75
2021/01/27 11:40:38;;;;;;;36.07;21.00;;;102.70;1996.80;;;;;;5135450;27;20380;-75
2021/01/27 11:43:04;;;;;;;126.00;92.37;;;102.70;1996.80;;;;;;5135490;27;20019;-74
2021/01/27 11:45:30;;;;;;;113.50;79.37;;;102.60;1996.80;;;;;;5135503;27;20023;-75
2021/01/27 11:47:56;;;;;;;89.20;49.87;;;102.70;2022.40;;;;;;5135364;27;20071;-75
2021/01/27 11:50:27;;;;;;;91.47;60.10;;;102.70;2022.40;;;;;;5135710;27;20475;-75
2021/01/27 11:52:53;;;;;;;49.27;32.10;;;102.80;2022.40;;;;;;5134988;27;20431;-75
2021/01/27 11:55:20;;;;;;;61.10;35.60;;;102.80;1996.80;;;;;;5135222;27;20035;-75
2021/01/27 11:57:47;;;;;;;59.07;33.33;;;102.80;1996.80;;;;;;5135311;27;20110;-74
2021/01/27 12:00:16;;;;;;;66.23;36.20;;;102.80;2022.40;;;;;;5135021;27;20101;-76
2021/01/27 12:02:42;;;;;;;84.47;42.47;;;102.80;2022.40;;;;;;5135417;27;20031;-75
2021/01/27 12:05:08;;;;;;;60.90;34.47;;;102.80;2022.40;;;;;;5135077;27;20101;-75
2021/01/27 12:07:34;;;;;;;49.80;27.90;;;102.80;2022.40;;;;;;5135109;27;20023;-76
2021/01/27 12:10:00;;;;;;;41.97;24.13;;;102.90;2022.40;;;;;;5134669;27;20027;-77
2021/01/27 12:12:26;;;;;;;37.37;20.20;;;102.90;1996.80;;;;;;5134964;27;20030;-76
2021/01/27 12:14:52;;;;;;;44.27;22.50;;;103.10;1996.80;;;;;;5134894;27;20102;-76
2021/01/27 12:17:18;;;;;;;27.97;16.90;;;103.10;1971.20;;;;;;5135257;27;20034;-76
2021/01/27 12:19:44;;;;;;;28.87;16.70;;;103.20;1920.00;;;;;;5134930;27;20023;-76
2021/01/27 12:22:10;;;;;;;28.07;17.17;;;103.20;1945.60;;;;;;5134734;27;20046;-75
2021/01/27 12:24:36;;;;;;;25.17;13.17;;;128.00;1945.60;;;;;;5133715;27;20025;-76
2021/01/27 12:27:01;;;;;;;1803.60;316.90;;;128.10;1920.00;;;;;;5133297;27;20057;-78
2021/01/27 12:29:27;;;;;;;190.03;36.93;;;128.10;1894.40;;;;;;5134668;27;20053;-77
2021/01/27 12:31:53;;;;;;;20.80;10.90;;;128.00;1894.40;;;;;;5134692;27;20031;-75
2021/01/27 12:34:20;;;;;;;14.83;9.30;;;128.00;1894.40;;;;;;5134515;27;20080;-77
2021/01/27 12:36:47;;;;;;;15.63;9.40;;;128.00;1920.00;;;;;;5134580;27;20452;-77
2021/01/27 12:39:13;;;;;;;31.47;12.53;;;128.00;1894.40;;;;;;5134472;27;20110;-76
2021/01/27 12:41:39;;;;;;;16.73;10.50;;;128.10;1920.00;;;;;;5134422;27;20065;-76